createdAt,value
2022-09-28T00:01:45.612Z,9.17
2022-09-28T00:04:12.892Z,15.70
2022-09-28T00:06:40.152Z,10.13
2022-09-28T00:09:07.268Z,7.70
2022-09-28T00:11:34.838Z,11.70
2022-09-28T00:14:03.574Z,11.27
2022-09-28T00:16:32.530Z,7.40
2022-09-28T00:19:00.186Z,6.90
2022-09-28T00:21:28.623Z,7.40
2022-09-28T00:24:15.784Z,7.13
2022-09-28T00:26:54.163Z,5.10
2022-09-28T00:29:27.412Z,5.53
2022-09-28T00:32:02.378Z,7.37
2022-09-28T00:34:34.719Z,9.50
2022-09-28T00:37:02.540Z,5.50
2022-09-28T00:39:32.671Z,6.80
2022-09-28T00:41:59.842Z,3.27
2022-09-28T00:44:26.897Z,4.27
2022-09-28T00:46:53.915Z,4.07
2022-09-28T00:49:24.467Z,5.93
2022-09-28T00:51:51.536Z,4.40
2022-09-28T00:54:18.615Z,5.00
2022-09-28T00:56:48.427Z,6.67
2022-09-28T00:59:15.727Z,5.90
2022-09-28T01:01:42.820Z,6.03
2022-09-28T01:04:10.105Z,5.50
2022-09-28T01:06:38.798Z,4.63
2022-09-28T01:09:08.065Z,8.63
2022-09-28T01:11:37.405Z,5.70
2022-09-28T01:14:04.645Z,8.43
2022-09-28T01:16:40.590Z,7.40
2022-09-28T01:19:24.755Z,5.87
2022-09-28T01:22:01.180Z,5.20
2022-09-28T01:24:36.536Z,5.70
2022-09-28T01:27:06.378Z,9.77
2022-09-28T01:29:36.399Z,7.20
2022-09-28T01:32:13.436Z,6.83
2022-09-28T01:35:00.789Z,6.27
2022-09-28T01:37:33.285Z,5.03
2022-09-28T01:40:03.632Z,8.30
2022-09-28T01:42:32.191Z,5.50
2022-09-28T01:45:04.001Z,7.23
2022-09-28T01:47:33.315Z,6.90
2022-09-28T01:50:04.568Z,7.50
2022-09-28T01:52:35.528Z,8.70
2022-09-28T01:55:08.431Z,9.23
2022-09-28T01:57:41.624Z,12.33
2022-09-28T02:00:11.808Z,4.73
2022-09-28T02:02:44.516Z,7.90
2022-09-28T02:05:17.032Z,10.40
2022-09-28T02:07:52.247Z,8.63
2022-09-28T02:10:22.226Z,7.77
2022-09-28T02:12:51.316Z,6.37
2022-09-28T02:15:23.863Z,6.67
2022-09-28T02:17:51.779Z,9.63
2022-09-28T02:20:19.170Z,5.00
2022-09-28T02:22:51.376Z,10.37
2022-09-28T02:25:21.484Z,7.23
2022-09-28T02:27:57.553Z,9.23
2022-09-28T02:30:24.904Z,6.57
2022-09-28T02:32:53.642Z,5.80
2022-09-28T02:35:20.733Z,6.67
2022-09-28T02:37:47.995Z,6.50
2022-09-28T02:40:19.450Z,4.20
2022-09-28T02:42:54.193Z,5.43
2022-09-28T02:45:27.023Z,6.87
2022-09-28T02:47:57.042Z,3.57
2022-09-28T02:50:34.193Z,6.10
2022-09-28T02:53:07.430Z,5.97
2022-09-28T02:55:40.457Z,6.30
2022-09-28T02:58:13.296Z,5.33
2022-09-28T03:00:53.786Z,9.67
2022-09-28T03:03:32.849Z,6.77
2022-09-28T03:06:03.393Z,8.07
2022-09-28T03:08:34.056Z,5.40
2022-09-28T03:11:06.194Z,4.83
2022-09-28T03:13:34.428Z,4.80
2022-09-28T03:16:11.074Z,6.67
2022-09-28T03:18:38.313Z,5.57
2022-09-28T03:21:05.633Z,5.27
2022-09-28T03:23:32.953Z,9.37
2022-09-28T03:26:00.370Z,7.87
2022-09-28T03:28:28.149Z,5.93
2022-09-28T03:30:55.263Z,6.60
2022-09-28T03:33:22.752Z,6.10
2022-09-28T03:35:50.682Z,7.43
2022-09-28T03:38:21.412Z,7.27
2022-09-28T03:40:55.598Z,6.03
2022-09-28T03:43:22.802Z,8.47
2022-09-28T03:45:57.099Z,6.47
2022-09-28T03:48:29.865Z,7.37
2022-09-28T03:50:59.657Z,6.20
2022-09-28T03:53:26.936Z,5.30
2022-09-28T03:55:54.030Z,5.47
2022-09-28T03:58:21.684Z,7.43
2022-09-28T04:00:49.354Z,4.90
2022-09-28T04:03:16.784Z,5.00
2022-09-28T04:05:50.658Z,4.23
2022-09-28T04:08:18.034Z,6.33
2022-09-28T04:10:45.097Z,6.00
2022-09-28T04:13:12.284Z,4.20
2022-09-28T04:15:39.403Z,4.13
2022-09-28T04:18:10.561Z,5.30
2022-09-28T04:20:37.830Z,6.23
2022-09-28T04:23:04.909Z,5.67
2022-09-28T04:25:31.994Z,5.00
2022-09-28T04:28:17.569Z,6.63
2022-09-28T04:30:46.866Z,5.40
2022-09-28T04:33:13.993Z,7.40
2022-09-28T04:35:41.176Z,7.10
2022-09-28T04:38:08.228Z,6.50
2022-09-28T04:40:35.387Z,4.27
2022-09-28T04:43:02.481Z,4.67
2022-09-28T04:45:29.694Z,9.07
2022-09-28T04:47:56.795Z,6.97
2022-09-28T04:50:23.875Z,7.60
2022-09-28T04:52:51.011Z,4.60
2022-09-28T04:55:18.192Z,6.17
2022-09-28T04:57:45.281Z,5.97
2022-09-28T05:00:12.774Z,6.37
2022-09-28T05:02:39.881Z,4.40
2022-09-28T05:05:07.168Z,5.67
2022-09-28T05:07:34.246Z,5.17
2022-09-28T05:10:01.522Z,4.20
2022-09-28T05:12:28.611Z,4.67
2022-09-28T05:14:56.521Z,7.33
2022-09-28T05:17:24.042Z,6.17
2022-09-28T05:19:51.123Z,4.90
2022-09-28T05:22:18.178Z,7.77
2022-09-28T05:24:46.429Z,5.63
2022-09-28T05:27:13.585Z,5.57
2022-09-28T05:29:40.659Z,6.77
2022-09-28T05:32:07.790Z,5.23
2022-09-28T05:34:35.095Z,5.17
2022-09-28T05:37:02.199Z,4.57
2022-09-28T05:39:29.293Z,5.17
2022-09-28T05:41:57.863Z,8.27
2022-09-28T05:44:25.850Z,3.80
2022-09-28T05:46:54.679Z,5.47
2022-09-28T05:49:21.729Z,5.27
2022-09-28T05:51:48.813Z,4.20
2022-09-28T05:54:15.908Z,4.83
2022-09-28T05:56:43.132Z,6.53
2022-09-28T05:59:10.250Z,7.70
2022-09-28T06:01:37.359Z,3.40
2022-09-28T06:04:04.528Z,2.87
2022-09-28T06:06:31.627Z,2.90
2022-09-28T06:08:58.702Z,2.73
2022-09-28T06:11:27.536Z,7.97
2022-09-28T06:13:55.624Z,2.90
2022-09-28T06:16:22.727Z,8.20
2022-09-28T06:18:49.880Z,4.47
2022-09-28T06:21:16.981Z,4.47
2022-09-28T06:23:48.803Z,3.53
2022-09-28T06:26:16.964Z,6.97
2022-09-28T06:28:44.076Z,6.00
2022-09-28T06:31:11.354Z,8.20
2022-09-28T06:33:38.675Z,3.10
2022-09-28T06:36:05.860Z,6.20
2022-09-28T06:38:32.990Z,9.40
2022-09-28T06:41:00.189Z,6.20
2022-09-28T06:43:32.174Z,2.30
2022-09-28T06:46:01.799Z,2.63
2022-09-28T06:48:29.097Z,2.57
2022-09-28T06:50:56.183Z,2.20
2022-09-28T06:53:23.594Z,2.47
2022-09-28T06:55:50.734Z,2.63
2022-09-28T06:58:19.592Z,1.67
2022-09-28T07:00:47.530Z,4.37
2022-09-28T07:03:15.914Z,4.07
2022-09-28T07:05:44.877Z,2.67
2022-09-28T07:08:12.270Z,2.60
2022-09-28T07:10:43.969Z,2.07
2022-09-28T07:13:23.829Z,3.30
2022-09-28T07:16:01.988Z,3.80
2022-09-28T07:18:29.863Z,3.30
2022-09-28T07:20:57.438Z,6.23
2022-09-28T07:23:27.436Z,2.67
2022-09-28T07:25:54.820Z,2.40
2022-09-28T07:28:22.314Z,6.17
2022-09-28T07:30:49.501Z,5.43
2022-09-28T07:33:17.538Z,4.00
2022-09-28T07:35:55.449Z,4.60
2022-09-28T07:38:22.603Z,8.57
2022-09-28T07:41:08.857Z,6.53
2022-09-28T07:43:35.987Z,3.97
2022-09-28T07:46:03.161Z,3.47
2022-09-28T07:48:37.928Z,2.83
2022-09-28T07:51:05.594Z,2.27
2022-09-28T07:53:32.744Z,5.00
2022-09-28T07:56:02.097Z,2.45
2022-09-28T07:58:29.327Z,4.22
2022-09-28T08:00:56.514Z,5.00
2022-09-28T08:03:23.678Z,4.87
2022-09-28T08:05:50.764Z,4.70
2022-09-28T08:08:20.289Z,5.40
2022-09-28T08:10:47.762Z,9.10
2022-09-28T08:13:16.302Z,8.13
2022-09-28T08:15:43.405Z,3.93
2022-09-28T08:18:10.855Z,5.27
2022-09-28T08:20:56.544Z,3.77
2022-09-28T08:23:23.918Z,9.27
2022-09-28T08:25:53.833Z,3.97
2022-09-28T08:28:21.858Z,3.00
2022-09-28T08:30:49.456Z,8.73
2022-09-28T08:33:23.381Z,3.23
2022-09-28T08:35:57.798Z,9.00
2022-09-28T08:38:26.667Z,3.50
2022-09-28T08:40:54.714Z,4.30
2022-09-28T08:43:28.691Z,6.00
2022-09-28T08:45:57.530Z,3.23
2022-09-28T08:48:49.016Z,3.60
2022-09-28T08:51:26.786Z,3.97
2022-09-28T08:54:00.970Z,3.90
2022-09-28T08:56:37.739Z,4.57
2022-09-28T08:59:06.092Z,5.60
2022-09-28T09:01:36.540Z,4.63
2022-09-28T09:04:04.760Z,4.27
2022-09-28T09:07:07.067Z,8.00
2022-09-28T09:09:34.115Z,3.07
2022-09-28T09:12:19.279Z,4.60
2022-09-28T09:14:55.991Z,5.43
2022-09-28T09:17:35.116Z,5.67
2022-09-28T09:20:05.298Z,6.03
2022-09-28T09:22:43.574Z,6.43
2022-09-28T09:25:26.881Z,6.17
2022-09-28T09:28:23.119Z,5.33
2022-09-28T09:30:55.546Z,3.37
2022-09-28T09:33:25.432Z,3.20
2022-09-28T09:36:07.838Z,4.03
2022-09-28T09:38:47.291Z,3.97
2022-09-28T09:41:14.809Z,5.77
2022-09-28T09:43:49.312Z,7.20
2022-09-28T09:46:19.498Z,2.97
2022-09-28T09:48:59.195Z,4.53
2022-09-28T09:51:42.198Z,4.50
2022-09-28T09:54:15.304Z,5.80
2022-09-28T09:57:03.854Z,5.57
2022-09-28T09:59:33.690Z,3.70
2022-09-28T10:02:11.906Z,5.80
2022-09-28T10:04:44.482Z,4.07
2022-09-28T10:07:16.635Z,5.87
2022-09-28T10:09:45.919Z,6.47
2022-09-28T10:12:16.023Z,4.53
2022-09-28T10:14:43.674Z,8.47
2022-09-28T10:17:12.839Z,7.17
2022-09-28T10:19:40.016Z,4.47
2022-09-28T10:22:07.598Z,2.93
2022-09-28T10:24:56.776Z,5.03
2022-09-28T10:27:31.953Z,2.47
2022-09-28T10:30:08.478Z,5.33
2022-09-28T10:32:44.425Z,5.60
2022-09-28T10:35:21.533Z,4.57
2022-09-28T10:37:48.600Z,2.83
2022-09-28T10:40:40.703Z,4.40
2022-09-28T10:43:28.124Z,5.22
2022-09-28T10:46:07.557Z,3.55
2022-09-28T10:48:48.013Z,3.95
2022-09-28T10:51:15.149Z,3.78
2022-09-28T10:53:42.521Z,2.13
2022-09-28T10:56:22.910Z,2.10
2022-09-28T10:58:50.042Z,1.67
2022-09-28T11:01:31.356Z,5.05
2022-09-28T11:04:00.503Z,4.63
2022-09-28T11:06:32.104Z,3.90
2022-09-28T11:09:04.731Z,2.00
2022-09-28T11:11:32.008Z,3.90
2022-09-28T11:14:03.579Z,4.73
2022-09-28T11:16:32.081Z,3.33
2022-09-28T11:19:00.389Z,2.83
2022-09-28T11:21:28.794Z,4.43
2022-09-28T11:24:07.352Z,3.67
2022-09-28T11:26:39.097Z,3.60
2022-09-28T11:29:07.534Z,3.47
2022-09-28T11:31:36.031Z,3.23
2022-09-28T11:34:05.081Z,2.73
2022-09-28T11:36:41.576Z,3.30
2022-09-28T11:39:12.822Z,5.20
2022-09-28T11:41:39.862Z,4.20
2022-09-28T11:44:12.913Z,2.10
2022-09-28T11:46:39.979Z,2.57
2022-09-28T11:49:25.860Z,2.87
2022-09-28T11:51:53.906Z,2.37
2022-09-28T11:54:33.650Z,4.43
2022-09-28T11:57:02.287Z,2.87
2022-09-28T11:59:38.432Z,2.77
2022-09-28T12:02:18.164Z,6.53
2022-09-28T12:05:05.547Z,4.13
2022-09-28T12:07:35.216Z,4.17
2022-09-28T12:10:20.841Z,6.17
2022-09-28T12:12:51.038Z,2.67
2022-09-28T12:15:26.342Z,2.10
2022-09-28T12:18:03.639Z,3.80
2022-09-28T12:20:33.233Z,3.73
2022-09-28T12:23:00.308Z,4.60
2022-09-28T12:25:28.841Z,3.57
2022-09-28T12:28:01.751Z,2.90
2022-09-28T12:30:31.616Z,4.10
2022-09-28T12:33:16.806Z,2.93
2022-09-28T12:35:46.620Z,4.57
2022-09-28T12:38:13.711Z,6.10
2022-09-28T12:40:40.847Z,4.30
2022-09-28T12:43:19.254Z,2.00
2022-09-28T12:46:09.913Z,3.27
2022-09-28T12:48:57.295Z,4.23
2022-09-28T12:51:34.193Z,2.07
2022-09-28T12:54:07.186Z,1.92
2022-09-28T12:56:34.503Z,2.90
2022-09-28T12:59:25.254Z,3.70
2022-09-28T13:01:52.688Z,2.00
2022-09-28T13:04:28.608Z,2.75
2022-09-28T13:07:01.503Z,3.53
2022-09-28T13:09:28.988Z,3.17
2022-09-28T13:12:03.591Z,4.57
2022-09-28T13:14:42.614Z,1.30
2022-09-28T13:17:28.504Z,9.57
2022-09-28T13:20:00.237Z,5.13
2022-09-28T13:22:44.089Z,3.33
2022-09-28T13:25:14.547Z,3.07
2022-09-28T13:27:45.595Z,4.80
2022-09-28T13:30:14.161Z,2.33
2022-09-28T13:32:41.607Z,2.63
2022-09-28T13:35:13.577Z,3.70
2022-09-28T13:37:41.503Z,3.08
2022-09-28T13:40:08.801Z,7.13
2022-09-28T13:42:47.894Z,5.63
2022-09-28T13:45:14.955Z,4.60
2022-09-28T13:48:00.439Z,3.63
2022-09-28T13:50:36.934Z,2.30
2022-09-28T13:53:20.029Z,4.30
2022-09-28T13:55:47.042Z,3.40
2022-09-28T13:58:18.064Z,2.58
2022-09-28T14:00:50.536Z,4.82
2022-09-28T14:03:36.515Z,5.60
2022-09-28T14:06:05.724Z,4.85
2022-09-28T14:08:34.557Z,2.97
2022-09-28T14:11:24.543Z,2.63
2022-09-28T14:14:00.701Z,2.67
2022-09-28T14:16:31.111Z,3.10
2022-09-28T14:19:17.774Z,3.55
2022-09-28T14:21:51.072Z,2.88
2022-09-28T14:24:36.800Z,3.45
2022-09-28T14:27:13.088Z,4.57
2022-09-28T14:29:40.511Z,5.07
2022-09-28T14:32:10.327Z,4.33
2022-09-28T14:34:39.116Z,3.73
2022-09-28T14:37:37.545Z,3.47
2022-09-28T14:40:50.061Z,7.03
2022-09-28T14:43:24.384Z,12.40
2022-09-28T14:45:54.489Z,12.00
2022-09-28T14:48:22.881Z,8.40
2022-09-28T14:50:50.224Z,5.97
2022-09-28T14:53:22.686Z,5.23
2022-09-28T14:55:51.890Z,4.00
2022-09-28T14:58:22.422Z,6.07
2022-09-28T15:00:51.205Z,1.87
2022-09-28T15:03:18.824Z,3.27
2022-09-28T15:05:49.790Z,6.90
2022-09-28T15:08:20.921Z,2.27
2022-09-28T15:10:49.006Z,4.37
2022-09-28T15:13:21.968Z,2.37
2022-09-28T15:15:50.638Z,4.87
2022-09-28T15:18:20.903Z,6.07
2022-09-28T15:20:50.770Z,7.13
2022-09-28T15:23:37.466Z,3.57
2022-09-28T15:26:07.089Z,6.27
2022-09-28T15:28:34.893Z,2.77
2022-09-28T15:31:05.777Z,4.87
2022-09-28T15:33:52.481Z,3.23
2022-09-28T15:36:24.578Z,3.03
2022-09-28T15:39:12.072Z,4.40
2022-09-28T15:41:39.248Z,3.33
2022-09-28T15:44:15.783Z,3.80
2022-09-28T15:46:51.972Z,1.80
2022-09-28T15:49:26.613Z,3.33
2022-09-28T15:51:56.113Z,5.67
2022-09-28T15:54:31.199Z,3.93
2022-09-28T15:56:59.651Z,4.30
2022-09-28T15:59:34.766Z,3.90
2022-09-28T16:02:08.105Z,4.47
2022-09-28T16:04:38.535Z,4.87
2022-09-28T16:07:11.916Z,6.90
2022-09-28T16:09:57.021Z,7.67
2022-09-28T16:12:25.683Z,2.33
2022-09-28T16:14:55.812Z,5.17
2022-09-28T16:17:32.429Z,4.40
2022-09-28T16:20:04.075Z,5.40
2022-09-28T16:22:35.197Z,8.53
2022-09-28T16:25:02.827Z,5.20
2022-09-28T16:27:50.183Z,8.83
2022-09-28T16:30:21.715Z,6.13
2022-09-28T16:32:51.957Z,4.53
2022-09-28T16:35:25.771Z,5.97
2022-09-28T16:38:00.354Z,4.43
2022-09-28T16:40:28.125Z,8.83
2022-09-28T16:42:57.784Z,7.03
2022-09-28T16:45:25.031Z,7.07
2022-09-28T16:47:52.983Z,11.40
2022-09-28T16:50:21.356Z,10.00
2022-09-28T16:53:09.236Z,9.17
2022-09-28T16:55:40.842Z,15.03
2022-09-28T16:58:08.588Z,17.40
2022-09-28T17:00:36.174Z,14.57
2022-09-28T17:03:05.589Z,9.37
2022-09-28T17:05:32.688Z,8.40
2022-09-28T17:08:03.871Z,12.50
2022-09-28T17:10:56.191Z,13.47
2022-09-28T17:13:36.060Z,10.63
2022-09-28T17:16:08.942Z,11.10
2022-09-28T17:18:38.943Z,11.90
2022-09-28T17:21:26.317Z,8.40
2022-09-28T17:23:53.399Z,6.97
2022-09-28T17:26:27.704Z,8.63
2022-09-28T17:28:54.912Z,5.80
2022-09-28T17:31:22.128Z,4.73
2022-09-28T17:33:49.215Z,5.00
2022-09-28T17:36:18.153Z,7.33
2022-09-28T17:38:45.983Z,8.80
2022-09-28T17:41:18.040Z,9.23
2022-09-28T17:43:47.262Z,5.93
2022-09-28T17:46:27.299Z,11.00
2022-09-28T17:48:57.496Z,7.73
2022-09-28T17:51:24.691Z,7.87
2022-09-28T17:53:52.580Z,7.33
2022-09-28T17:56:19.645Z,8.13
2022-09-28T17:58:47.800Z,10.13
2022-09-28T18:01:14.974Z,10.27
2022-09-28T18:03:42.226Z,18.87
2022-09-28T18:06:14.309Z,20.17
2022-09-28T18:08:41.792Z,10.43
2022-09-28T18:11:09.261Z,7.70
2022-09-28T18:13:36.313Z,7.27
2022-09-28T18:16:03.930Z,8.83
2022-09-28T18:18:33.213Z,16.00
2022-09-28T18:21:03.306Z,22.97
2022-09-28T18:23:30.631Z,8.10
2022-09-28T18:25:57.674Z,13.83
2022-09-28T18:28:24.849Z,10.83
2022-09-28T18:30:51.949Z,10.40
2022-09-28T18:33:19.104Z,9.50
2022-09-28T18:35:53.335Z,13.10
2022-09-28T18:38:20.738Z,12.37
2022-09-28T18:40:48.383Z,14.13
2022-09-28T18:43:16.707Z,12.87
2022-09-28T18:45:43.814Z,12.33
2022-09-28T18:48:10.932Z,14.87
2022-09-28T18:50:37.993Z,13.00
2022-09-28T18:53:14.536Z,13.10
2022-09-28T18:55:42.527Z,14.13
2022-09-28T18:58:10.868Z,12.90
2022-09-28T19:00:41.941Z,12.63
2022-09-28T19:03:11.053Z,9.97
2022-09-28T19:05:42.369Z,12.63
2022-09-28T19:08:10.104Z,12.90
2022-09-28T19:10:37.367Z,14.37
2022-09-28T19:13:04.470Z,12.30
2022-09-28T19:15:33.027Z,37.57
2022-09-28T19:18:00.167Z,32.30
2022-09-28T19:20:27.239Z,44.70
2022-09-28T19:22:54.292Z,49.97
2022-09-28T19:25:21.369Z,41.70
2022-09-28T19:27:48.735Z,25.67
2022-09-28T19:30:15.825Z,27.93
2022-09-28T19:32:43.020Z,23.47
2022-09-28T19:35:10.181Z,23.37
2022-09-28T19:37:39.444Z,19.50
2022-09-28T19:40:06.848Z,17.87
2022-09-28T19:42:36.143Z,15.03
2022-09-28T19:45:03.408Z,13.70
2022-09-28T19:47:31.611Z,12.13
2022-09-28T19:49:58.742Z,13.13
2022-09-28T19:52:25.853Z,11.20
2022-09-28T19:55:00.924Z,11.10
2022-09-28T19:57:29.128Z,12.13
2022-09-28T20:00:01.645Z,10.13
2022-09-28T20:02:29.946Z,12.07
2022-09-28T20:04:57.112Z,11.77
2022-09-28T20:07:24.217Z,13.47
2022-09-28T20:09:51.698Z,11.07
2022-09-28T20:12:18.872Z,13.17
2022-09-28T20:14:45.969Z,11.60
2022-09-28T20:17:13.050Z,16.87
2022-09-28T20:19:40.149Z,17.00
2022-09-28T20:22:07.224Z,18.03
2022-09-28T20:24:34.338Z,11.70
2022-09-28T20:27:01.731Z,12.00
2022-09-28T20:29:29.227Z,11.00
2022-09-28T20:31:56.647Z,11.37
2022-09-28T20:34:23.757Z,14.47
2022-09-28T20:36:50.831Z,13.73
2022-09-28T20:39:17.964Z,13.47
2022-09-28T20:41:46.568Z,12.97
2022-09-28T20:44:13.725Z,13.83
2022-09-28T20:46:40.942Z,13.53
2022-09-28T20:49:08.099Z,13.27
2022-09-28T20:51:35.185Z,14.73
2022-09-28T20:54:02.319Z,15.67
2022-09-28T20:56:34.550Z,13.80
2022-09-28T20:59:01.707Z,12.80
2022-09-28T21:01:30.511Z,17.97
2022-09-28T21:03:59.008Z,11.97
2022-09-28T21:06:27.842Z,11.13
2022-09-28T21:08:55.232Z,14.27
2022-09-28T21:11:23.588Z,10.47
2022-09-28T21:13:54.888Z,10.07
2022-09-28T21:16:22.133Z,10.97
2022-09-28T21:18:49.187Z,13.33
2022-09-28T21:21:17.058Z,10.63
2022-09-28T21:23:44.920Z,9.73
2022-09-28T21:26:16.134Z,10.00
2022-09-28T21:28:44.754Z,9.50
2022-09-28T21:31:12.895Z,14.17
2022-09-28T21:33:40.005Z,12.70
2022-09-28T21:36:07.693Z,14.73
2022-09-28T21:38:35.422Z,13.63
2022-09-28T21:41:02.917Z,15.73
2022-09-28T21:43:31.525Z,12.53
2022-09-28T21:45:59.140Z,12.63
2022-09-28T21:48:27.162Z,16.27
2022-09-28T21:50:57.448Z,13.60
2022-09-28T21:53:25.534Z,15.47
2022-09-28T21:55:53.490Z,14.23
2022-09-28T21:58:24.316Z,17.80
2022-09-28T22:01:01.225Z,17.70
2022-09-28T22:03:28.837Z,16.83
2022-09-28T22:05:55.938Z,14.97
2022-09-28T22:08:23.032Z,17.23
2022-09-28T22:11:03.726Z,16.60
2022-09-28T22:13:31.740Z,17.03
2022-09-28T22:15:59.146Z,20.33
2022-09-28T22:18:27.273Z,19.40
2022-09-28T22:21:00.896Z,18.63
2022-09-28T22:23:28.464Z,19.57
2022-09-28T22:25:59.895Z,17.90
2022-09-28T22:28:26.994Z,16.47
2022-09-28T22:30:54.260Z,17.97
2022-09-28T22:33:21.451Z,18.67
2022-09-28T22:35:51.117Z,20.17
2022-09-28T22:38:19.043Z,21.13
2022-09-28T22:40:50.255Z,22.83
2022-09-28T22:43:17.692Z,20.10
2022-09-28T22:45:45.062Z,20.27
2022-09-28T22:48:12.170Z,19.77
2022-09-28T22:50:39.611Z,18.60
2022-09-28T22:53:06.888Z,23.00
2022-09-28T22:55:34.146Z,17.83
2022-09-28T22:58:02.368Z,19.73
2022-09-28T23:00:30.135Z,18.97
2022-09-28T23:02:57.268Z,20.87
2022-09-28T23:05:24.368Z,17.90
2022-09-28T23:07:51.469Z,19.70
2022-09-28T23:10:18.587Z,17.13
2022-09-28T23:12:45.655Z,19.00
2022-09-28T23:15:13.657Z,16.23
2022-09-28T23:17:40.710Z,17.63
2022-09-28T23:20:08.094Z,18.30
2022-09-28T23:22:35.178Z,20.73
2022-09-28T23:25:02.436Z,17.73
2022-09-28T23:27:29.512Z,18.67
2022-09-28T23:29:56.805Z,21.07
2022-09-28T23:32:26.539Z,20.53
2022-09-28T23:34:55.841Z,19.53
2022-09-28T23:37:22.900Z,16.37
2022-09-28T23:39:50.200Z,14.73
2022-09-28T23:42:17.294Z,18.27
2022-09-28T23:44:44.360Z,21.93
2022-09-28T23:47:11.452Z,17.13
2022-09-28T23:49:38.615Z,19.43
2022-09-28T23:52:05.783Z,17.57
2022-09-28T23:54:32.936Z,19.07
2022-09-28T23:57:00.021Z,17.60
2022-09-28T23:59:27.127Z,18.73
